Time;durP1;ratioP1;P1;durP2;ratioP2;P2;SDS_P1;SDS_P2;PMS_P1;PMS_P2;Temp;Humidity;BMP_temperature;BMP_pressure;BME280_temperature;BME280_humidity;BME280_pressure;Samples;Min_cycle;Max_cycle;Signal;HPM_P1;HPM_P2
2023/01/13 07:19:30;;;;;;;4.15;1.10;;;9.70;99.90;;;;;;6343686;22;20045;-87
2023/01/13 07:22:23;;;;;;;;;;;;;;;;;;;;;
2023/01/13 07:24:49;;;;;;;3.85;1.00;;;9.60;99.90;;;;;;6342845;22;20030;-84
2023/01/13 07:27:18;;;;;;;4.93;1.17;;;9.60;99.90;;;;;;6316767;22;19999;-83
2023/01/13 07:30:04;;;;;;;5.47;1.42;;;9.50;99.90;;;;;;6317956;22;20452;-86
2023/01/13 07:32:36;;;;;;;6.50;1.40;;;9.50;99.90;;;;;;6318289;22;20067;-91
2023/01/13 07:35:13;;;;;;;3.63;1.00;;;9.50;99.90;;;;;;6318584;22;20009;-92
2023/01/13 07:39:17;;;;;;;3.92;1.00;;;9.50;99.90;;;;;;6317783;22;20014;-91
2023/01/13 07:45:11;;;;;;;2.42;0.98;;;9.50;99.90;;;;;;6218114;23;20011;-88
2023/01/13 07:47:37;;;;;;;4.60;0.85;;;9.50;99.90;;;;;;6218352;23;20008;-86
2023/01/13 07:50:03;;;;;;;3.78;1.10;;;9.40;99.90;;;;;;6192914;23;20096;-84
2023/01/13 07:52:28;;;;;;;5.15;1.42;;;9.40;99.90;;;;;;6260843;22;20317;-84
2023/01/13 07:54:54;;;;;;;5.00;1.20;;;9.50;99.90;;;;;;6316499;22;20011;-83
2023/01/13 07:57:20;;;;;;;6.25;1.00;;;9.40;99.90;;;;;;6316143;22;20085;-82
2023/01/13 07:59:45;;;;;;;2.28;0.77;;;9.50;99.90;;;;;;6315953;22;20007;-83
2023/01/13 08:02:14;;;;;;;6.55;1.00;;;9.50;99.90;;;;;;6343784;22;20066;-85
2023/01/13 08:04:40;;;;;;;4.75;1.00;;;9.50;99.90;;;;;;6314704;22;20336;-85
2023/01/13 08:07:06;;;;;;;5.55;1.27;;;9.50;99.90;;;;;;6315810;22;20003;-82
2023/01/13 08:09:32;;;;;;;4.55;1.40;;;9.50;99.90;;;;;;6315131;22;20003;-83
2023/01/13 08:14:42;;;;;;;2.63;0.90;;;9.50;99.90;;;;;;6343570;22;20022;-85
2023/01/13 08:17:08;;;;;;;4.07;1.60;;;9.50;99.90;;;;;;6316513;22;20003;-88
2023/01/13 08:19:34;;;;;;;5.03;1.17;;;9.50;99.90;;;;;;6315916;22;20443;-88
2023/01/13 08:22:00;;;;;;;7.43;1.25;;;9.50;99.90;;;;;;6315852;22;20003;-87
2023/01/13 08:24:25;;;;;;;4.88;1.13;;;9.50;99.90;;;;;;6316048;22;19999;-88
2023/01/13 08:26:51;;;;;;;6.72;1.65;;;9.50;99.90;;;;;;6315775;22;20007;-88
2023/01/13 08:29:17;;;;;;;6.60;1.50;;;9.40;99.90;;;;;;6316190;22;20014;-88
2023/01/13 08:31:42;;;;;;;6.50;1.40;;;9.40;99.90;;;;;;6315295;22;20003;-84
2023/01/13 08:34:08;;;;;;;7.63;1.75;;;9.50;99.90;;;;;;6315768;22;20530;-86
2023/01/13 08:36:34;;;;;;;8.07;1.50;;;9.50;99.90;;;;;;6316042;22;20002;-86
2023/01/13 08:39:00;;;;;;;6.72;1.63;;;9.50;99.90;;;;;;6317188;22;20028;-84
2023/01/13 08:44:10;;;;;;;6.22;1.58;;;9.50;99.90;;;;;;6344938;22;20048;-84
2023/01/13 08:46:36;;;;;;;7.97;1.60;;;9.50;99.90;;;;;;6317418;22;20002;-83
2023/01/13 08:49:02;;;;;;;6.97;1.60;;;9.50;99.90;;;;;;6317200;22;20010;-84
2023/01/13 08:51:27;;;;;;;6.22;1.30;;;9.60;99.90;;;;;;6344814;22;20432;-84
2023/01/13 08:53:53;;;;;;;6.97;1.73;;;9.60;99.90;;;;;;6317250;22;20085;-84
2023/01/13 08:56:19;;;;;;;4.88;1.50;;;9.60;99.90;;;;;;6344579;22;19995;-84
2023/01/13 08:58:44;;;;;;;12.63;2.15;;;9.70;99.90;;;;;;6345010;22;20006;-84
2023/01/13 09:01:14;;;;;;;5.20;1.75;;;9.70;99.90;;;;;;6344789;22;19995;-84
2023/01/13 09:03:40;;;;;;;5.75;1.40;;;9.80;99.90;;;;;;6314197;22;20011;-83
2023/01/13 09:06:06;;;;;;;9.07;1.65;;;9.80;99.90;;;;;;6315937;22;20052;-82
2023/01/13 09:08:32;;;;;;;6.40;1.60;;;9.80;99.90;;;;;;6316569;22;20439;-84
2023/01/13 09:10:58;;;;;;;9.32;2.08;;;9.80;99.90;;;;;;6342596;22;20428;-83
2023/01/13 09:13:24;;;;;;;7.60;1.58;;;9.80;99.90;;;;;;6342111;22;20001;-83
2023/01/13 09:15:55;;;;;;;10.20;1.77;;;9.80;99.90;;;;;;6344057;22;20071;-84
2023/01/13 09:18:21;;;;;;;6.28;1.67;;;9.80;99.90;;;;;;6317303;22;19999;-83
2023/01/13 09:21:55;;;;;;;;;;;;;;;;;;;;;
2023/01/13 09:24:22;;;;;;;6.63;1.27;;;9.80;99.90;;;;;;6228576;22;20034;-92
2023/01/13 09:26:48;;;;;;;9.23;2.08;;;9.80;99.90;;;;;;6317582;22;19999;-79
2023/01/13 09:29:14;;;;;;;8.75;1.90;;;9.80;99.90;;;;;;6344318;22;20026;-70
2023/01/13 09:31:40;;;;;;;7.75;1.98;;;9.80;99.90;;;;;;6343762;22;20512;-71
2023/01/13 09:36:51;;;;;;;9.82;1.95;;;9.90;99.90;;;;;;6341437;22;20085;-72
2023/01/13 09:39:16;;;;;;;6.10;2.03;;;10.00;99.90;;;;;;6311515;22;20031;-72
2023/01/13 09:44:46;;;;;;;5.75;1.83;;;9.90;99.90;;;;;;6337396;22;20013;-71
2023/01/13 09:47:23;;;;;;;2.92;1.10;;;9.90;99.90;;;;;;6337330;22;20022;-72
2023/01/13 09:49:49;;;;;;;6.50;1.48;;;10.00;99.90;;;;;;6339053;22;20077;-71
2023/01/13 09:52:24;;;;;;;9.15;1.85;;;10.00;99.90;;;;;;6310764;22;20014;-72
2023/01/13 09:55:01;;;;;;;10.10;1.75;;;10.00;99.90;;;;;;6338267;22;20819;-74
2023/01/13 09:57:30;;;;;;;8.02;1.98;;;10.10;99.90;;;;;;6309917;22;20016;-73
2023/01/13 09:59:57;;;;;;;7.45;1.90;;;10.00;99.90;;;;;;6338102;22;20009;-73
2023/01/13 10:03:12;;;;;;;9.15;1.73;;;10.00;99.90;;;;;;6310771;22;20003;-74
2023/01/13 10:05:46;;;;;;;11.75;2.05;;;10.00;99.90;;;;;;6291177;22;20009;-74
2023/01/13 10:08:21;;;;;;;6.97;1.83;;;10.00;99.90;;;;;;6309179;22;20006;-74
2023/01/13 10:10:54;;;;;;;9.00;1.77;;;10.00;99.90;;;;;;6338206;22;20026;-74
2023/01/13 10:13:28;;;;;;;6.32;2.00;;;10.00;99.90;;;;;;6338468;22;20714;-74
2023/01/13 10:16:09;;;;;;;8.75;1.52;;;10.00;99.90;;;;;;6336656;22;20015;-74
2023/01/13 10:18:55;;;;;;;8.88;2.00;;;10.00;99.90;;;;;;6338066;22;20074;-75
2023/01/13 10:21:46;;;;;;;10.07;2.20;;;10.00;99.90;;;;;;6339439;22;20424;-74
2023/01/13 10:24:35;;;;;;;12.48;2.55;;;10.00;99.90;;;;;;6340096;22;20006;-76
2023/01/13 10:27:14;;;;;;;9.30;1.98;;;10.10;99.90;;;;;;6310060;22;20002;-75
2023/01/13 10:29:39;;;;;;;6.82;1.58;;;10.10;99.90;;;;;;6339929;22;20017;-75
2023/01/13 10:32:05;;;;;;;11.50;2.08;;;10.10;99.90;;;;;;6339871;22;19998;-76
2023/01/13 10:34:49;;;;;;;7.30;1.63;;;10.20;99.90;;;;;;6340617;22;20002;-76
2023/01/13 10:37:26;;;;;;;7.75;1.90;;;10.20;99.90;;;;;;6339198;22;20007;-75
2023/01/13 10:39:59;;;;;;;9.93;2.03;;;10.20;99.90;;;;;;6340067;22;20435;-74
2023/01/13 10:42:25;;;;;;;4.40;1.83;;;10.20;99.90;;;;;;6337292;22;20030;-75
2023/01/13 10:44:53;;;;;;;8.90;1.95;;;10.30;99.90;;;;;;6338657;22;20451;-73
2023/01/13 10:47:35;;;;;;;6.40;1.92;;;10.40;99.90;;;;;;6340155;22;19995;-74
2023/01/13 10:50:10;;;;;;;8.70;1.80;;;10.40;99.90;;;;;;6340621;22;20002;-74
2023/01/13 10:52:40;;;;;;;7.70;1.98;;;10.40;99.90;;;;;;6314859;22;20003;-72
2023/01/13 10:55:35;;;;;;;5.72;1.63;;;10.50;99.90;;;;;;6314358;22;20094;-73
2023/01/13 10:58:17;;;;;;;5.25;2.03;;;10.60;99.90;;;;;;6339625;22;20466;-76
2023/01/13 11:00:43;;;;;;;7.93;2.03;;;10.60;99.90;;;;;;6337968;22;20002;-76
2023/01/13 11:03:12;;;;;;;11.95;2.05;;;10.70;99.90;;;;;;6309776;22;20009;-79
2023/01/13 11:05:38;;;;;;;7.78;2.05;;;10.70;99.90;;;;;;6311559;22;20034;-78
2023/01/13 11:08:04;;;;;;;9.55;2.38;;;10.70;99.90;;;;;;6309768;22;20003;-77
2023/01/13 11:10:32;;;;;;;8.85;1.85;;;10.80;99.90;;;;;;6339004;22;20030;-75
2023/01/13 11:13:14;;;;;;;11.02;2.22;;;10.80;99.90;;;;;;6337721;22;20742;-78
2023/01/13 11:15:56;;;;;;;10.43;2.35;;;10.80;99.90;;;;;;6313472;22;20025;-73
2023/01/13 11:19:01;;;;;;;7.35;1.77;;;10.80;99.90;;;;;;6340517;22;20317;-76
2023/01/13 11:21:50;;;;;;;12.95;2.22;;;10.90;99.90;;;;;;6341541;22;20144;-75
2023/01/13 11:24:41;;;;;;;8.55;2.05;;;11.00;99.90;;;;;;6342501;22;19995;-77
2023/01/13 11:27:22;;;;;;;11.70;2.28;;;11.00;99.90;;;;;;6343448;22;20003;-79
2023/01/13 11:29:57;;;;;;;8.68;1.88;;;11.00;99.90;;;;;;6341701;22;20010;-77
2023/01/13 11:32:23;;;;;;;9.88;1.83;;;11.00;99.90;;;;;;6341658;22;20002;-72
2023/01/13 11:35:14;;;;;;;7.65;2.08;;;11.00;99.90;;;;;;6343114;22;20028;-72
2023/01/13 11:37:45;;;;;;;5.80;1.63;;;11.10;99.90;;;;;;6329528;22;20011;-73
2023/01/13 11:40:31;;;;;;;8.85;2.08;;;11.10;99.90;;;;;;6343298;22;20032;-76
2023/01/13 11:43:20;;;;;;;5.82;1.65;;;11.20;99.90;;;;;;6343332;22;20048;-75
2023/01/13 11:45:56;;;;;;;6.57;1.55;;;11.20;99.90;;;;;;6330087;22;20390;-76
2023/01/13 11:48:28;;;;;;;13.32;2.55;;;11.20;99.90;;;;;;6343197;22;19999;-76
2023/01/13 11:51:12;;;;;;;9.13;1.90;;;11.20;99.90;;;;;;6341008;22;20064;-76
2023/01/13 11:54:01;;;;;;;6.25;1.75;;;11.20;99.90;;;;;;6341492;22;20037;-76
2023/01/13 11:56:46;;;;;;;6.32;2.55;;;11.20;99.90;;;;;;6342865;22;19999;-76
2023/01/13 12:00:03;;;;;;;9.38;1.90;;;11.30;99.90;;;;;;6341864;22;20030;-73
2023/01/13 12:02:36;;;;;;;12.35;2.08;;;11.30;99.90;;;;;;6247221;23;20006;-73
2023/01/13 12:05:12;;;;;;;11.10;2.25;;;11.30;99.90;;;;;;6327845;22;20003;-73
2023/01/13 12:08:17;;;;;;;8.65;1.83;;;11.30;99.90;;;;;;6342649;22;19995;-73
2023/01/13 12:10:54;;;;;;;6.07;1.40;;;11.30;99.90;;;;;;6341236;22;20005;-76
2023/01/13 12:13:26;;;;;;;8.65;2.15;;;11.30;99.90;;;;;;6342316;22;20041;-73
2023/01/13 12:16:24;;;;;;;8.57;2.20;;;11.30;99.90;;;;;;6341333;22;20034;-75
2023/01/13 12:19:08;;;;;;;9.48;1.73;;;11.30;99.90;;;;;;6343396;22;20034;-80
2023/01/13 12:21:39;;;;;;;18.15;2.10;;;11.30;99.90;;;;;;6341383;22;20088;-73
2023/01/13 12:24:26;;;;;;;6.57;1.70;;;11.40;99.90;;;;;;6343179;22;20055;-73
2023/01/13 12:27:30;;;;;;;6.60;1.90;;;11.40;99.90;;;;;;6340691;22;19999;-74
2023/01/13 12:29:58;;;;;;;9.48;2.10;;;11.40;99.90;;;;;;6341911;22;20011;-74
2023/01/13 12:32:35;;;;;;;11.85;2.75;;;11.40;99.90;;;;;;6342422;22;20070;-77
2023/01/13 12:35:32;;;;;;;8.10;2.13;;;11.50;99.90;;;;;;6341269;22;20007;-75
2023/01/13 12:38:11;;;;;;;6.43;1.77;;;11.50;99.90;;;;;;6338687;22;20003;-72
2023/01/13 12:41:04;;;;;;;12.60;2.78;;;11.50;99.90;;;;;;6342365;22;20002;-70
2023/01/13 12:46:21;;;;;;;7.63;1.63;;;11.50;99.90;;;;;;6339823;22;20033;-75
2023/01/13 12:48:55;;;;;;;10.35;2.17;;;11.50;99.90;;;;;;6341987;22;20339;-72
2023/01/13 12:51:26;;;;;;;10.35;2.25;;;11.50;99.90;;;;;;6341569;22;20475;-74
2023/01/13 12:53:53;;;;;;;7.90;1.73;;;11.60;99.90;;;;;;6338364;22;20057;-73
2023/01/13 12:56:31;;;;;;;8.52;2.05;;;11.60;99.90;;;;;;6336664;22;19999;-77
2023/01/13 12:59:15;;;;;;;7.53;1.83;;;11.70;99.90;;;;;;6338572;22;20336;-74
2023/01/13 13:01:42;;;;;;;5.53;1.90;;;11.70;99.90;;;;;;6336462;22;20431;-73
2023/01/13 13:04:11;;;;;;;9.25;2.08;;;11.70;99.90;;;;;;6336048;22;20003;-72
2023/01/13 13:06:40;;;;;;;11.43;2.35;;;11.70;99.90;;;;;;6334790;22;20003;-72
2023/01/13 13:09:15;;;;;;;9.55;1.65;;;11.70;99.90;;;;;;6338036;22;20335;-72
2023/01/13 13:14:38;;;;;;;7.07;2.20;;;11.80;99.90;;;;;;6338067;22;20021;-75
2023/01/13 13:17:24;;;;;;;10.70;2.42;;;11.80;99.90;;;;;;6340041;22;20424;-75
2023/01/13 13:19:50;;;;;;;9.82;2.78;;;11.80;99.90;;;;;;6341847;22;20032;-74
2023/01/13 13:22:43;;;;;;;7.45;1.77;;;11.80;99.90;;;;;;6342775;22;19999;-73
2023/01/13 13:25:23;;;;;;;8.90;2.25;;;11.90;99.90;;;;;;6331156;22;20002;-74
2023/01/13 13:27:54;;;;;;;7.80;1.90;;;11.90;99.90;;;;;;6343239;22;20024;-72
2023/01/13 13:30:34;;;;;;;7.50;1.73;;;11.90;99.90;;;;;;6344737;22;19998;-73
2023/01/13 13:33:27;;;;;;;10.30;2.05;;;11.90;99.90;;;;;;6342412;22;20003;-73
2023/01/13 13:36:12;;;;;;;6.90;1.50;;;11.90;99.90;;;;;;6343211;22;20378;-72
2023/01/13 13:47:46;;;;;;;8.50;2.13;;;12.10;99.90;;;;;;6342440;22;20051;-72
2023/01/13 13:50:19;;;;;;;7.78;1.98;;;12.10;99.90;;;;;;6342854;22;20003;-78
2023/01/13 13:53:04;;;;;;;11.93;1.92;;;12.10;99.90;;;;;;6342087;22;20005;-73
2023/01/13 13:55:30;;;;;;;6.85;1.63;;;12.20;99.90;;;;;;6341083;22;20062;-73
2023/01/13 13:57:57;;;;;;;9.07;2.15;;;12.30;99.90;;;;;;6341280;22;20011;-73
2023/01/13 14:00:36;;;;;;;9.43;2.00;;;12.30;99.90;;;;;;6340761;22;20459;-74
2023/01/13 14:03:06;;;;;;;9.60;1.98;;;12.30;99.90;;;;;;6342185;22;19999;-73
2023/01/13 14:05:36;;;;;;;9.05;1.83;;;12.30;99.90;;;;;;6341397;22;20048;-73
2023/01/13 14:08:08;;;;;;;10.48;1.88;;;12.30;99.90;;;;;;6341439;22;20712;-74
2023/01/13 14:10:39;;;;;;;8.13;2.05;;;12.40;99.90;;;;;;6342569;22;19999;-73
2023/01/13 14:13:16;;;;;;;6.65;1.55;;;12.40;99.90;;;;;;6342480;22;20002;-73
2023/01/13 14:15:43;;;;;;;9.05;1.95;;;12.30;99.90;;;;;;6340089;22;20081;-73
2023/01/13 14:18:16;;;;;;;11.35;2.05;;;12.30;99.90;;;;;;6341743;22;20074;-72
2023/01/13 14:20:42;;;;;;;9.65;2.13;;;12.30;99.90;;;;;;6342226;22;20011;-74
2023/01/13 14:23:16;;;;;;;8.02;1.80;;;12.40;99.90;;;;;;6341006;22;20005;-73
2023/01/13 14:25:50;;;;;;;7.45;2.03;;;12.30;99.90;;;;;;6340858;22;20002;-73
2023/01/13 14:28:26;;;;;;;7.60;1.98;;;12.30;99.90;;;;;;6339874;22;20078;-72
2023/01/13 14:30:53;;;;;;;7.28;1.55;;;12.30;99.90;;;;;;6341573;22;20003;-73
2023/01/13 14:33:32;;;;;;;9.80;2.15;;;12.40;99.90;;;;;;6342002;22;20009;-72
2023/01/13 14:36:17;;;;;;;6.82;1.75;;;12.40;99.90;;;;;;6340765;22;20003;-72
2023/01/13 14:39:09;;;;;;;7.53;1.73;;;12.30;99.90;;;;;;6341255;22;20459;-74
2023/01/13 14:41:40;;;;;;;10.30;2.30;;;12.20;99.90;;;;;;6298399;22;20033;-72
2023/01/13 14:44:29;;;;;;;7.45;1.75;;;12.20;99.90;;;;;;6342622;22;20454;-71
2023/01/13 14:46:58;;;;;;;7.15;1.67;;;12.20;99.90;;;;;;6341043;22;19999;-73
2023/01/13 14:49:27;;;;;;;6.40;1.60;;;12.10;99.90;;;;;;6342213;22;20432;-71
2023/01/13 14:52:01;;;;;;;7.75;1.92;;;12.10;99.90;;;;;;6342369;22;20003;-71
2023/01/13 14:54:44;;;;;;;7.63;1.33;;;12.20;99.90;;;;;;6342584;22;20006;-72
2023/01/13 14:57:21;;;;;;;11.52;2.10;;;12.10;99.90;;;;;;6338741;22;20003;-71
2023/01/13 14:59:56;;;;;;;6.53;1.80;;;12.10;99.90;;;;;;6335870;22;20028;-69
2023/01/13 15:02:31;;;;;;;8.82;1.67;;;12.10;99.90;;;;;;6337023;22;19995;-70
2023/01/13 15:05:22;;;;;;;7.10;1.45;;;12.10;99.90;;;;;;6337142;22;20450;-72
2023/01/13 15:08:13;;;;;;;9.50;1.73;;;12.10;99.90;;;;;;6337848;22;20442;-72
2023/01/13 15:10:46;;;;;;;8.88;2.25;;;12.10;99.90;;;;;;6339640;22;20001;-72
2023/01/13 15:13:25;;;;;;;5.50;1.85;;;12.10;99.90;;;;;;6340025;22;20009;-72
2023/01/13 15:15:54;;;;;;;9.15;1.83;;;12.10;99.90;;;;;;6341436;22;20056;-75
2023/01/13 15:18:20;;;;;;;6.13;1.85;;;12.10;99.90;;;;;;6342041;22;20002;-72
2023/01/13 15:20:45;;;;;;;12.50;2.25;;;12.10;99.90;;;;;;6341580;22;20089;-72
2023/01/13 15:23:11;;;;;;;7.28;2.20;;;12.10;99.90;;;;;;6342034;22;19998;-72
2023/01/13 15:25:41;;;;;;;10.88;2.45;;;12.10;99.90;;;;;;6341253;22;20009;-73
2023/01/13 15:28:17;;;;;;;7.47;2.13;;;12.00;99.90;;;;;;6341250;22;20027;-71
2023/01/13 15:30:42;;;;;;;7.65;1.58;;;12.10;99.90;;;;;;6340809;22;20034;-72
2023/01/13 15:33:11;;;;;;;7.93;1.95;;;12.10;99.90;;;;;;6339820;22;20003;-71
2023/01/13 15:35:40;;;;;;;6.57;1.85;;;12.10;99.90;;;;;;6341452;22;20603;-74
2023/01/13 15:38:13;;;;;;;6.85;1.73;;;12.10;99.90;;;;;;6339367;22;20011;-76
2023/01/13 15:40:39;;;;;;;5.47;1.73;;;12.00;99.90;;;;;;6339926;22;20636;-75
2023/01/13 15:48:35;;;;;;;7.88;2.20;;;12.10;99.90;;;;;;6344242;22;20594;-74
2023/01/13 15:51:01;;;;;;;7.50;1.95;;;12.10;99.90;;;;;;6343364;22;20082;-78
2023/01/13 15:53:26;;;;;;;7.43;1.67;;;12.10;99.90;;;;;;6342172;22;20435;-74
2023/01/13 15:55:55;;;;;;;5.55;1.65;;;12.10;99.90;;;;;;6342909;22;19994;-72
2023/01/13 15:58:25;;;;;;;7.35;1.67;;;12.10;99.90;;;;;;6341917;22;20058;-72
2023/01/13 16:00:51;;;;;;;9.70;2.13;;;12.10;99.90;;;;;;6343941;22;20002;-74
2023/01/13 16:03:17;;;;;;;9.35;1.90;;;12.10;99.90;;;;;;6343654;22;19995;-74
2023/01/13 16:05:43;;;;;;;6.72;1.65;;;12.10;99.90;;;;;;6340605;22;20386;-75
2023/01/13 16:08:21;;;;;;;5.32;1.40;;;12.00;99.90;;;;;;6341401;22;20440;-73
2023/01/13 16:10:48;;;;;;;6.50;1.48;;;12.10;99.90;;;;;;6342603;22;20006;-73
2023/01/13 16:13:15;;;;;;;6.80;1.70;;;12.00;99.90;;;;;;6341324;22;20014;-71
2023/01/13 16:15:49;;;;;;;4.32;1.08;;;12.00;99.90;;;;;;6340384;22;20350;-74
2023/01/13 16:18:23;;;;;;;4.50;1.27;;;12.00;99.90;;;;;;6340092;22;19998;-69
2023/01/13 16:20:52;;;;;;;5.43;1.20;;;12.00;99.90;;;;;;6338575;22;20010;-73
2023/01/13 16:23:18;;;;;;;3.72;1.13;;;12.00;99.90;;;;;;6339905;22;19999;-73
2023/01/13 16:25:45;;;;;;;4.97;1.38;;;12.00;99.90;;;;;;6340132;22;19998;-74
2023/01/13 16:28:23;;;;;;;4.32;1.10;;;11.90;99.90;;;;;;6338545;22;20003;-80
2023/01/13 16:30:50;;;;;;;6.05;1.05;;;11.90;99.90;;;;;;6339771;22;20014;-77
2023/01/13 16:33:16;;;;;;;5.00;1.33;;;11.90;99.90;;;;;;6340907;22;20006;-78
2023/01/13 16:35:42;;;;;;;5.93;1.10;;;11.90;99.90;;;;;;6338144;22;20017;-73
2023/01/13 16:38:18;;;;;;;5.85;1.40;;;11.90;99.90;;;;;;6338732;22;20003;-73
2023/01/13 16:40:44;;;;;;;6.30;1.55;;;11.90;99.90;;;;;;6340430;22;19999;-73
2023/01/13 16:43:12;;;;;;;5.85;1.27;;;11.90;99.90;;;;;;6339042;22;19999;-75
2023/01/13 16:45:39;;;;;;;6.00;1.38;;;11.80;99.90;;;;;;6340064;22;20002;-74
2023/01/13 16:48:05;;;;;;;5.50;1.40;;;11.80;99.90;;;;;;6338435;22;20052;-71
2023/01/13 16:50:38;;;;;;;6.30;1.08;;;11.80;99.90;;;;;;6339284;22;20432;-71
2023/01/13 16:53:05;;;;;;;4.97;1.27;;;11.80;99.90;;;;;;6340283;22;20010;-75
2023/01/13 16:55:31;;;;;;;2.85;1.10;;;11.80;99.90;;;;;;6339831;22;20057;-72
2023/01/13 16:57:57;;;;;;;4.70;1.35;;;11.80;99.90;;;;;;6340804;22;20006;-74
2023/01/13 17:00:23;;;;;;;3.75;1.35;;;11.80;99.90;;;;;;6340885;22;20007;-74
2023/01/13 17:02:49;;;;;;;3.67;1.30;;;11.80;99.90;;;;;;6341168;22;20489;-74
2023/01/13 17:05:15;;;;;;;5.30;1.13;;;11.80;99.90;;;;;;6340121;22;20429;-76
2023/01/13 17:07:45;;;;;;;6.38;1.77;;;11.70;99.90;;;;;;6342317;22;20005;-73
2023/01/13 17:10:17;;;;;;;5.82;1.17;;;11.70;99.90;;;;;;6342741;22;20078;-73
2023/01/13 17:12:42;;;;;;;3.80;0.93;;;11.70;99.90;;;;;;6342839;22;20028;-72
2023/01/13 17:15:11;;;;;;;3.22;1.05;;;11.70;99.90;;;;;;6341999;22;20407;-73
2023/01/13 17:17:37;;;;;;;4.18;1.35;;;11.70;99.90;;;;;;6340933;22;20102;-74
2023/01/13 17:20:03;;;;;;;2.17;0.82;;;11.60;99.90;;;;;;6342487;22;20002;-75
2023/01/13 17:22:29;;;;;;;6.57;1.20;;;11.60;99.90;;;;;;6340657;22;20030;-76
2023/01/13 17:24:55;;;;;;;4.70;1.63;;;11.60;99.90;;;;;;6342600;22;20007;-74
2023/01/13 17:27:21;;;;;;;3.80;1.17;;;11.60;99.90;;;;;;6341178;22;20056;-73
2023/01/13 17:29:48;;;;;;;3.40;1.33;;;11.60;99.90;;;;;;6343139;22;20033;-70
2023/01/13 17:32:16;;;;;;;3.15;1.30;;;11.60;99.90;;;;;;6341887;22;20003;-68
2023/01/13 17:34:42;;;;;;;3.58;1.15;;;11.60;99.90;;;;;;6343387;22;20022;-71
2023/01/13 17:37:09;;;;;;;5.07;1.30;;;11.60;99.90;;;;;;6343043;22;20003;-71
2023/01/13 17:39:34;;;;;;;5.57;1.58;;;11.60;99.90;;;;;;6342541;22;20084;-71
2023/01/13 17:42:00;;;;;;;6.30;1.48;;;11.60;99.90;;;;;;6343222;22;20033;-70
2023/01/13 17:44:25;;;;;;;3.20;1.13;;;11.60;99.90;;;;;;6341672;22;20351;-70
2023/01/13 17:46:51;;;;;;;3.78;1.27;;;11.60;99.90;;;;;;6342467;22;20002;-68
2023/01/13 17:49:18;;;;;;;3.15;1.20;;;11.70;99.90;;;;;;6342363;22;20006;-73
2023/01/13 17:51:47;;;;;;;4.45;1.17;;;11.70;99.90;;;;;;6343057;22;20504;-78
2023/01/13 17:54:28;;;;;;;2.83;1.38;;;11.70;99.90;;;;;;6342891;22;20428;-80
2023/01/13 17:56:55;;;;;;;4.10;1.23;;;11.60;99.90;;;;;;6341066;22;20014;-81
2023/01/13 18:00:18;;;;;;;4.10;1.30;;;11.60;99.90;;;;;;6340106;22;20007;-80
2023/01/13 18:06:16;;;;;;;6.18;1.40;;;11.50;99.90;;;;;;6343496;22;20006;-89
2023/01/13 18:15:45;;;;;;;4.57;1.33;;;11.40;99.90;;;;;;6374208;22;20021;-86
2023/01/13 18:18:10;;;;;;;6.47;1.65;;;11.40;99.90;;;;;;6344639;22;19999;-77
2023/01/13 18:28:06;;;;;;;4.45;1.50;;;11.50;99.90;;;;;;6216809;23;20516;-82
2023/01/13 18:30:49;;;;;;;3.33;1.35;;;11.40;99.90;;;;;;6128033;23;20008;-80
2023/01/13 18:33:15;;;;;;;5.30;1.45;;;11.40;99.90;;;;;;6344904;22;20002;-78
2023/01/13 18:35:47;;;;;;;5.45;1.63;;;11.50;99.90;;;;;;6346745;22;20002;-83
2023/01/13 18:38:18;;;;;;;5.38;1.40;;;11.50;99.90;;;;;;6374126;22;20022;-78
2023/01/13 18:40:43;;;;;;;5.32;1.75;;;11.40;99.90;;;;;;6346823;22;20078;-77
2023/01/13 18:43:09;;;;;;;6.38;1.60;;;11.40;99.90;;;;;;6374342;22;20432;-77
2023/01/13 18:45:35;;;;;;;4.85;1.63;;;11.40;99.90;;;;;;6374402;22;20119;-78
2023/01/13 18:48:03;;;;;;;3.15;1.25;;;11.40;99.90;;;;;;6374406;22;19994;-77
2023/01/13 18:50:29;;;;;;;4.18;1.65;;;11.40;99.90;;;;;;6374121;22;20026;-79
2023/01/13 18:52:55;;;;;;;4.72;1.95;;;11.40;99.90;;;;;;6374532;22;20424;-76
2023/01/13 18:55:21;;;;;;;3.63;1.48;;;11.40;99.90;;;;;;6374113;22;20002;-78
2023/01/13 18:57:54;;;;;;;6.03;1.55;;;11.40;99.90;;;;;;6346797;22;20505;-80
2023/01/13 19:00:21;;;;;;;5.28;1.15;;;11.40;99.90;;;;;;6345474;22;20144;-79
2023/01/13 19:02:49;;;;;;;5.32;1.58;;;11.40;99.90;;;;;;6346603;22;20002;-80
2023/01/13 19:05:15;;;;;;;4.03;1.33;;;11.40;99.90;;;;;;6346251;22;20009;-78
2023/01/13 19:07:49;;;;;;;3.72;1.70;;;11.40;99.90;;;;;;6346340;22;20006;-77
2023/01/13 19:10:16;;;;;;;3.97;1.55;;;11.40;99.90;;;;;;6374013;22;20033;-77
2023/01/13 19:12:42;;;;;;;5.80;1.60;;;11.40;99.90;;;;;;6374316;22;20005;-79
2023/01/13 19:15:08;;;;;;;5.38;1.10;;;11.40;99.90;;;;;;6372094;22;20454;-79
2023/01/13 19:17:35;;;;;;;1.90;1.08;;;11.40;99.90;;;;;;6345263;22;20007;-78
2023/01/13 19:20:03;;;;;;;3.22;1.60;;;11.40;99.90;;;;;;6372613;22;20007;-78
2023/01/13 19:22:32;;;;;;;6.32;1.80;;;11.40;99.90;;;;;;6372542;22;20005;-78
2023/01/13 19:25:02;;;;;;;3.97;1.38;;;11.30;99.90;;;;;;6343216;22;19998;-77
2023/01/13 19:27:28;;;;;;;3.40;1.55;;;11.30;99.90;;;;;;6373177;22;20445;-78
2023/01/13 19:29:57;;;;;;;4.13;1.80;;;11.40;99.90;;;;;;6372818;22;20077;-78
2023/01/13 19:32:23;;;;;;;4.88;1.48;;;11.40;99.90;;;;;;6372544;22;19999;-77
2023/01/13 19:34:49;;;;;;;3.17;1.27;;;11.30;99.90;;;;;;6344393;22;20006;-78
2023/01/13 19:37:16;;;;;;;4.45;1.13;;;11.40;99.90;;;;;;6372688;22;20431;-78
2023/01/13 19:39:41;;;;;;;4.82;1.15;;;11.40;99.90;;;;;;6371742;22;20002;-78
2023/01/13 19:47:39;;;;;;;2.70;1.23;;;11.40;99.90;;;;;;6373052;22;20024;-79
2023/01/13 19:50:07;;;;;;;3.97;1.63;;;11.40;99.90;;;;;;6344637;22;20003;-78
2023/01/13 19:52:33;;;;;;;4.63;1.55;;;11.40;99.90;;;;;;6371470;22;20026;-79
2023/01/13 19:54:59;;;;;;;2.85;1.10;;;11.40;99.90;;;;;;6343419;22;20013;-81
2023/01/13 19:57:25;;;;;;;3.20;1.00;;;11.40;99.90;;;;;;6372839;22;20436;-81
2023/01/13 19:59:55;;;;;;;6.13;1.60;;;11.40;99.90;;;;;;6345198;22;20010;-83
2023/01/13 20:02:27;;;;;;;3.28;1.48;;;11.40;99.90;;;;;;6370950;22;20523;-81
2023/01/13 20:04:56;;;;;;;3.83;1.55;;;11.40;99.90;;;;;;6372225;22;19994;-80
2023/01/13 20:07:26;;;;;;;5.20;1.45;;;11.30;99.90;;;;;;6344721;22;20006;-81
2023/01/13 20:09:55;;;;;;;2.58;1.27;;;11.30;99.90;;;;;;6372813;22;20006;-80
2023/01/13 20:12:21;;;;;;;6.10;1.73;;;11.30;99.90;;;;;;6371792;22;20331;-80
2023/01/13 20:14:47;;;;;;;3.92;1.50;;;11.40;99.90;;;;;;6345325;22;20041;-80
2023/01/13 20:17:15;;;;;;;5.35;1.52;;;11.40;99.90;;;;;;6345091;22;20006;-83
2023/01/13 20:19:41;;;;;;;4.53;1.27;;;11.40;99.90;;;;;;6371704;22;20013;-79
2023/01/13 20:22:07;;;;;;;6.82;1.30;;;11.40;99.90;;;;;;6373100;22;20006;-78
2023/01/13 20:24:41;;;;;;;3.72;1.20;;;11.40;99.90;;;;;;6372249;22;20405;-79
2023/01/13 20:27:06;;;;;;;;;;;11.40;99.90;;;;;;6370824;22;19998;-78
2023/01/13 20:29:35;;;;;;;2.60;1.30;;;11.30;99.90;;;;;;6345007;22;19906;-79
2023/01/13 20:32:10;;;;;;;6.03;1.42;;;11.40;99.90;;;;;;6345776;22;20033;-80
2023/01/13 20:34:36;;;;;;;3.65;1.50;;;11.30;99.90;;;;;;6375322;22;20036;-78
2023/01/13 20:37:04;;;;;;;4.72;1.33;;;11.40;99.90;;;;;;6345486;22;20002;-80
2023/01/13 20:39:30;;;;;;;2.83;1.20;;;11.40;99.90;;;;;;6347154;22;20002;-80
2023/01/13 20:44:40;;;;;;;4.82;1.58;;;11.40;99.90;;;;;;6375304;22;20013;-79
2023/01/13 20:47:06;;;;;;;3.90;1.40;;;11.50;99.90;;;;;;6345712;22;20029;-78
2023/01/13 20:49:58;;;;;;;3.95;1.00;;;11.50;99.90;;;;;;6375563;22;20008;-84
2023/01/13 21:06:19;;;;;;;4.63;1.38;;;11.50;99.90;;;;;;6217245;22;20123;-86
2023/01/13 21:08:48;;;;;;;3.03;1.05;;;11.50;99.90;;;;;;6333957;22;20026;-85
2023/01/13 21:19:54;;;;;;;3.30;1.30;;;11.50;99.90;;;;;;6374310;22;20064;-84
2023/01/13 21:22:20;;;;;;;3.83;1.00;;;11.50;99.90;;;;;;6373894;22;20431;-84
2023/01/13 21:24:46;;;;;;;4.55;1.40;;;11.50;99.90;;;;;;6347630;22;20005;-84
2023/01/13 21:27:12;;;;;;;6.32;1.30;;;11.50;99.90;;;;;;6347400;22;19998;-84
2023/01/13 21:29:48;;;;;;;;;;;;;;;;;;;;;
2023/01/13 21:32:14;;;;;;;6.28;1.30;;;11.50;99.90;;;;;;6375917;22;20073;-85
2023/01/13 21:34:39;;;;;;;5.43;1.10;;;11.50;99.90;;;;;;6347549;22;20009;-82
2023/01/13 21:37:05;;;;;;;6.18;1.40;;;11.50;99.90;;;;;;6374958;22;20336;-84
2023/01/13 21:40:10;;;;;;;5.70;1.40;;;11.50;99.90;;;;;;6347408;22;20029;-86
2023/01/13 21:48:25;;;;;;;3.05;0.82;;;11.50;99.90;;;;;;6372596;22;20019;-85
2023/01/13 21:54:11;;;;;;;;;;;;;;;;;;;;;
2023/01/13 21:56:39;;;;;;;4.80;1.60;;;11.50;99.90;;;;;;6375432;22;20044;-84
2023/01/13 21:59:05;;;;;;;8.30;1.73;;;11.50;99.90;;;;;;6347118;22;20331;-85
2023/01/13 22:01:30;;;;;;;4.57;1.23;;;11.50;99.90;;;;;;6374912;22;19999;-84
2023/01/13 22:04:11;;;;;;;5.25;1.35;;;11.50;99.90;;;;;;6375576;22;20073;-84
2023/01/13 22:06:37;;;;;;;4.70;1.50;;;11.50;99.90;;;;;;6347241;22;19998;-89
2023/01/13 22:09:03;;;;;;;3.47;1.20;;;11.50;99.90;;;;;;6345763;22;20062;-86
2023/01/13 22:11:30;;;;;;;5.22;1.60;;;11.50;99.90;;;;;;6347868;22;20002;-90